sensor_id;sensor_type;location;lat;lon;timestamp;P1;durP1;ratioP1;P2;durP2;ratioP2
24143;SDS011;12307;50.828;6.080;2023-10-09T00:01:01;2.40;;;1.98;;
24143;SDS011;12307;50.828;6.080;2023-10-09T00:03:29;2.13;;;1.92;;
24143;SDS011;12307;50.828;6.080;2023-10-09T00:05:56;2.42;;;1.90;;
24143;SDS011;12307;50.828;6.080;2023-10-09T00:08:22;1.98;;;1.73;;
24143;SDS011;12307;50.828;6.080;2023-10-09T00:10:58;1.92;;;1.65;;
24143;SDS011;12307;50.828;6.080;2023-10-09T00:13:38;2.38;;;1.83;;
24143;SDS011;12307;50.828;6.080;2023-10-09T00:16:13;2.35;;;1.80;;
24143;SDS011;12307;50.828;6.080;2023-10-09T00:18:40;2.92;;;2.08;;
24143;SDS011;12307;50.828;6.080;2023-10-09T00:21:15;1.90;;;1.50;;
24143;SDS011;12307;50.828;6.080;2023-10-09T00:23:41;2.63;;;1.90;;
24143;SDS011;12307;50.828;6.080;2023-10-09T00:26:06;2.22;;;1.85;;
24143;SDS011;12307;50.828;6.080;2023-10-09T00:28:41;2.35;;;1.90;;
24143;SDS011;12307;50.828;6.080;2023-10-09T00:31:12;1.92;;;1.73;;
24143;SDS011;12307;50.828;6.080;2023-10-09T00:33:41;2.22;;;1.77;;
24143;SDS011;12307;50.828;6.080;2023-10-09T00:36:07;2.58;;;1.90;;
24143;SDS011;12307;50.828;6.080;2023-10-09T00:38:37;2.03;;;1.80;;
24143;SDS011;12307;50.828;6.080;2023-10-09T00:41:15;2.65;;;2.08;;
24143;SDS011;12307;50.828;6.080;2023-10-09T00:43:49;2.55;;;2.00;;
24143;SDS011;12307;50.828;6.080;2023-10-09T00:46:16;2.72;;;2.10;;
24143;SDS011;12307;50.828;6.080;2023-10-09T00:48:44;2.10;;;1.90;;
24143;SDS011;12307;50.828;6.080;2023-10-09T00:51:13;2.60;;;2.03;;
24143;SDS011;12307;50.828;6.080;2023-10-09T00:53:51;1.75;;;1.60;;
24143;SDS011;12307;50.828;6.080;2023-10-09T00:56:19;1.90;;;1.70;;
24143;SDS011;12307;50.828;6.080;2023-10-09T00:58:52;1.90;;;1.70;;
24143;SDS011;12307;50.828;6.080;2023-10-09T01:01:24;2.00;;;1.65;;
24143;SDS011;12307;50.828;6.080;2023-10-09T01:04:00;2.45;;;1.70;;
24143;SDS011;12307;50.828;6.080;2023-10-09T01:06:35;2.75;;;2.03;;
24143;SDS011;12307;50.828;6.080;2023-10-09T01:09:09;2.42;;;1.83;;
24143;SDS011;12307;50.828;6.080;2023-10-09T01:11:36;2.90;;;2.10;;
24143;SDS011;12307;50.828;6.080;2023-10-09T01:14:28;2.13;;;1.80;;
24143;SDS011;12307;50.828;6.080;2023-10-09T01:16:55;2.65;;;1.80;;
24143;SDS011;12307;50.828;6.080;2023-10-09T01:19:22;2.58;;;1.70;;
24143;SDS011;12307;50.828;6.080;2023-10-09T01:21:52;2.53;;;1.63;;
24143;SDS011;12307;50.828;6.080;2023-10-09T01:24:20;2.15;;;1.90;;
24143;SDS011;12307;50.828;6.080;2023-10-09T01:26:47;3.05;;;2.08;;
24143;SDS011;12307;50.828;6.080;2023-10-09T01:29:15;2.25;;;1.63;;
24143;SDS011;12307;50.828;6.080;2023-10-09T01:31:42;2.63;;;1.80;;
24143;SDS011;12307;50.828;6.080;2023-10-09T01:34:15;2.53;;;1.85;;
24143;SDS011;12307;50.828;6.080;2023-10-09T01:36:42;2.38;;;1.92;;
24143;SDS011;12307;50.828;6.080;2023-10-09T01:39:08;2.22;;;1.80;;
24143;SDS011;12307;50.828;6.080;2023-10-09T01:41:47;2.50;;;1.95;;
24143;SDS011;12307;50.828;6.080;2023-10-09T01:44:14;2.47;;;1.88;;
24143;SDS011;12307;50.828;6.080;2023-10-09T01:46:41;2.20;;;1.90;;
24143;SDS011;12307;50.828;6.080;2023-10-09T01:49:07;1.90;;;1.70;;
24143;SDS011;12307;50.828;6.080;2023-10-09T01:51:42;2.45;;;1.90;;
24143;SDS011;12307;50.828;6.080;2023-10-09T01:54:08;2.42;;;2.00;;
24143;SDS011;12307;50.828;6.080;2023-10-09T01:56:41;2.35;;;1.90;;
24143;SDS011;12307;50.828;6.080;2023-10-09T01:59:12;2.20;;;1.90;;
24143;SDS011;12307;50.828;6.080;2023-10-09T02:01:38;2.75;;;1.90;;
24143;SDS011;12307;50.828;6.080;2023-10-09T02:04:07;2.33;;;1.92;;
24143;SDS011;12307;50.828;6.080;2023-10-09T02:06:39;3.00;;;1.83;;
24143;SDS011;12307;50.828;6.080;2023-10-09T02:09:05;1.90;;;1.60;;
24143;SDS011;12307;50.828;6.080;2023-10-09T02:11:31;2.53;;;1.77;;
24143;SDS011;12307;50.828;6.080;2023-10-09T02:14:08;2.88;;;2.05;;
24143;SDS011;12307;50.828;6.080;2023-10-09T02:16:50;2.17;;;1.80;;
24143;SDS011;12307;50.828;6.080;2023-10-09T02:19:31;2.17;;;1.80;;
24143;SDS011;12307;50.828;6.080;2023-10-09T02:21:59;2.15;;;1.80;;
24143;SDS011;12307;50.828;6.080;2023-10-09T02:24:28;2.03;;;1.70;;
24143;SDS011;12307;50.828;6.080;2023-10-09T02:27:12;2.83;;;1.90;;
24143;SDS011;12307;50.828;6.080;2023-10-09T02:29:44;2.25;;;1.70;;
24143;SDS011;12307;50.828;6.080;2023-10-09T02:32:13;2.63;;;1.90;;
24143;SDS011;12307;50.828;6.080;2023-10-09T02:34:41;2.10;;;1.60;;
24143;SDS011;12307;50.828;6.080;2023-10-09T02:37:11;2.13;;;1.70;;
24143;SDS011;12307;50.828;6.080;2023-10-09T02:39:38;2.45;;;1.85;;
24143;SDS011;12307;50.828;6.080;2023-10-09T02:42:12;2.00;;;1.80;;
24143;SDS011;12307;50.828;6.080;2023-10-09T02:44:37;2.30;;;1.80;;
24143;SDS011;12307;50.828;6.080;2023-10-09T02:47:11;2.10;;;1.60;;
24143;SDS011;12307;50.828;6.080;2023-10-09T02:49:44;1.73;;;1.48;;
24143;SDS011;12307;50.828;6.080;2023-10-09T02:52:13;2.05;;;1.67;;
24143;SDS011;12307;50.828;6.080;2023-10-09T02:54:43;2.30;;;1.77;;
24143;SDS011;12307;50.828;6.080;2023-10-09T02:57:11;2.20;;;2.00;;
24143;SDS011;12307;50.828;6.080;2023-10-09T02:59:46;2.28;;;1.77;;
24143;SDS011;12307;50.828;6.080;2023-10-09T03:02:12;2.10;;;1.73;;
24143;SDS011;12307;50.828;6.080;2023-10-09T03:04:38;2.50;;;1.77;;
24143;SDS011;12307;50.828;6.080;2023-10-09T03:07:07;2.53;;;1.80;;
24143;SDS011;12307;50.828;6.080;2023-10-09T03:09:35;2.13;;;1.63;;
24143;SDS011;12307;50.828;6.080;2023-10-09T03:12:02;2.60;;;1.88;;
24143;SDS011;12307;50.828;6.080;2023-10-09T03:14:28;2.05;;;1.65;;
24143;SDS011;12307;50.828;6.080;2023-10-09T03:16:55;1.65;;;1.50;;
24143;SDS011;12307;50.828;6.080;2023-10-09T03:19:21;2.20;;;1.77;;
24143;SDS011;12307;50.828;6.080;2023-10-09T03:21:47;1.75;;;1.50;;
24143;SDS011;12307;50.828;6.080;2023-10-09T03:24:14;2.00;;;1.58;;
24143;SDS011;12307;50.828;6.080;2023-10-09T03:26:41;2.10;;;1.67;;
24143;SDS011;12307;50.828;6.080;2023-10-09T03:29:10;2.15;;;1.80;;
24143;SDS011;12307;50.828;6.080;2023-10-09T03:31:35;2.10;;;1.80;;
24143;SDS011;12307;50.828;6.080;2023-10-09T03:34:01;2.40;;;1.92;;
24143;SDS011;12307;50.828;6.080;2023-10-09T03:36:27;2.42;;;1.90;;
24143;SDS011;12307;50.828;6.080;2023-10-09T03:38:55;2.30;;;1.83;;
24143;SDS011;12307;50.828;6.080;2023-10-09T03:41:24;2.08;;;1.83;;
24143;SDS011;12307;50.828;6.080;2023-10-09T03:43:54;2.05;;;1.75;;
24143;SDS011;12307;50.828;6.080;2023-10-09T03:46:20;2.40;;;1.80;;
24143;SDS011;12307;50.828;6.080;2023-10-09T03:48:46;1.95;;;1.73;;
24143;SDS011;12307;50.828;6.080;2023-10-09T03:51:12;3.05;;;1.95;;
24143;SDS011;12307;50.828;6.080;2023-10-09T03:53:40;2.05;;;1.70;;
24143;SDS011;12307;50.828;6.080;2023-10-09T03:56:06;1.75;;;1.60;;
24143;SDS011;12307;50.828;6.080;2023-10-09T03:58:42;2.20;;;1.73;;
24143;SDS011;12307;50.828;6.080;2023-10-09T04:01:10;2.22;;;1.73;;
24143;SDS011;12307;50.828;6.080;2023-10-09T04:03:57;2.40;;;1.77;;
24143;SDS011;12307;50.828;6.080;2023-10-09T04:06:28;2.55;;;2.05;;
24143;SDS011;12307;50.828;6.080;2023-10-09T04:08:58;2.75;;;1.77;;
24143;SDS011;12307;50.828;6.080;2023-10-09T04:11:24;3.00;;;1.73;;
24143;SDS011;12307;50.828;6.080;2023-10-09T04:13:51;2.33;;;1.88;;
24143;SDS011;12307;50.828;6.080;2023-10-09T04:16:18;2.08;;;1.63;;
24143;SDS011;12307;50.828;6.080;2023-10-09T04:18:53;2.35;;;1.80;;
24143;SDS011;12307;50.828;6.080;2023-10-09T04:21:21;1.98;;;1.77;;
24143;SDS011;12307;50.828;6.080;2023-10-09T04:23:59;2.38;;;2.10;;
24143;SDS011;12307;50.828;6.080;2023-10-09T04:26:34;2.00;;;1.80;;
24143;SDS011;12307;50.828;6.080;2023-10-09T04:29:03;2.03;;;1.77;;
24143;SDS011;12307;50.828;6.080;2023-10-09T04:31:31;1.90;;;1.60;;
24143;SDS011;12307;50.828;6.080;2023-10-09T04:34:03;2.25;;;1.98;;
24143;SDS011;12307;50.828;6.080;2023-10-09T04:36:49;2.00;;;1.70;;
24143;SDS011;12307;50.828;6.080;2023-10-09T04:39:16;2.28;;;2.00;;
24143;SDS011;12307;50.828;6.080;2023-10-09T04:42:01;3.47;;;2.00;;
24143;SDS011;12307;50.828;6.080;2023-10-09T04:44:47;2.08;;;1.88;;
24143;SDS011;12307;50.828;6.080;2023-10-09T04:47:28;2.20;;;1.80;;
24143;SDS011;12307;50.828;6.080;2023-10-09T04:50:04;2.10;;;1.70;;
24143;SDS011;12307;50.828;6.080;2023-10-09T04:52:34;2.30;;;1.98;;
24143;SDS011;12307;50.828;6.080;2023-10-09T04:55:00;2.33;;;1.85;;
24143;SDS011;12307;50.828;6.080;2023-10-09T04:57:32;2.83;;;1.90;;
24143;SDS011;12307;50.828;6.080;2023-10-09T05:00:25;1.92;;;1.65;;
24143;SDS011;12307;50.828;6.080;2023-10-09T05:02:51;1.90;;;1.63;;
24143;SDS011;12307;50.828;6.080;2023-10-09T05:05:21;1.98;;;1.70;;
24143;SDS011;12307;50.828;6.080;2023-10-09T05:08:13;2.17;;;1.70;;
24143;SDS011;12307;50.828;6.080;2023-10-09T05:10:47;2.50;;;2.00;;
24143;SDS011;12307;50.828;6.080;2023-10-09T05:13:25;1.90;;;1.65;;
24143;SDS011;12307;50.828;6.080;2023-10-09T05:16:05;2.20;;;1.90;;
24143;SDS011;12307;50.828;6.080;2023-10-09T05:18:32;2.28;;;2.00;;
24143;SDS011;12307;50.828;6.080;2023-10-09T05:21:04;2.55;;;1.80;;
24143;SDS011;12307;50.828;6.080;2023-10-09T05:23:38;2.00;;;1.80;;
24143;SDS011;12307;50.828;6.080;2023-10-09T05:26:13;2.42;;;2.00;;
24143;SDS011;12307;50.828;6.080;2023-10-09T05:28:58;2.00;;;1.80;;
24143;SDS011;12307;50.828;6.080;2023-10-09T05:31:25;2.10;;;1.75;;
24143;SDS011;12307;50.828;6.080;2023-10-09T05:34:09;2.20;;;1.95;;
24143;SDS011;12307;50.828;6.080;2023-10-09T05:36:37;2.03;;;1.73;;
24143;SDS011;12307;50.828;6.080;2023-10-09T05:39:03;2.65;;;2.03;;
24143;SDS011;12307;50.828;6.080;2023-10-09T05:41:47;2.17;;;1.77;;
24143;SDS011;12307;50.828;6.080;2023-10-09T05:44:24;2.40;;;1.90;;
24143;SDS011;12307;50.828;6.080;2023-10-09T05:47:10;2.35;;;1.90;;
24143;SDS011;12307;50.828;6.080;2023-10-09T05:49:54;1.90;;;1.63;;
24143;SDS011;12307;50.828;6.080;2023-10-09T05:52:26;2.33;;;1.80;;
24143;SDS011;12307;50.828;6.080;2023-10-09T05:55:18;2.42;;;1.90;;
24143;SDS011;12307;50.828;6.080;2023-10-09T05:58:06;2.40;;;1.60;;
24143;SDS011;12307;50.828;6.080;2023-10-09T06:00:50;2.20;;;1.80;;
24143;SDS011;12307;50.828;6.080;2023-10-09T06:03:35;1.88;;;1.55;;
24143;SDS011;12307;50.828;6.080;2023-10-09T06:06:19;2.50;;;1.90;;
24143;SDS011;12307;50.828;6.080;2023-10-09T06:08:58;2.00;;;1.80;;
24143;SDS011;12307;50.828;6.080;2023-10-09T06:11:39;2.55;;;1.70;;
24143;SDS011;12307;50.828;6.080;2023-10-09T06:14:06;2.67;;;2.10;;
24143;SDS011;12307;50.828;6.080;2023-10-09T06:16:35;2.75;;;1.83;;
24143;SDS011;12307;50.828;6.080;2023-10-09T06:19:06;1.90;;;1.70;;
24143;SDS011;12307;50.828;6.080;2023-10-09T06:21:36;2.20;;;1.75;;
24143;SDS011;12307;50.828;6.080;2023-10-09T06:24:25;1.73;;;1.45;;
24143;SDS011;12307;50.828;6.080;2023-10-09T06:26:58;2.13;;;1.80;;
24143;SDS011;12307;50.828;6.080;2023-10-09T06:29:24;2.00;;;1.80;;
24143;SDS011;12307;50.828;6.080;2023-10-09T06:32:08;2.67;;;1.92;;
24143;SDS011;12307;50.828;6.080;2023-10-09T06:34:45;2.33;;;2.00;;
24143;SDS011;12307;50.828;6.080;2023-10-09T06:37:21;3.08;;;2.33;;
24143;SDS011;12307;50.828;6.080;2023-10-09T06:39:51;3.83;;;2.40;;
24143;SDS011;12307;50.828;6.080;2023-10-09T06:42:22;4.50;;;2.70;;
24143;SDS011;12307;50.828;6.080;2023-10-09T06:45:03;3.30;;;2.40;;
24143;SDS011;12307;50.828;6.080;2023-10-09T06:47:33;4.03;;;2.50;;
24143;SDS011;12307;50.828;6.080;2023-10-09T06:50:08;3.75;;;2.78;;
24143;SDS011;12307;50.828;6.080;2023-10-09T06:52:49;4.00;;;2.92;;
24143;SDS011;12307;50.828;6.080;2023-10-09T06:55:35;6.80;;;3.38;;
24143;SDS011;12307;50.828;6.080;2023-10-09T06:58:13;4.20;;;2.92;;
24143;SDS011;12307;50.828;6.080;2023-10-09T07:00:41;4.47;;;2.83;;
24143;SDS011;12307;50.828;6.080;2023-10-09T07:03:25;5.28;;;3.60;;
24143;SDS011;12307;50.828;6.080;2023-10-09T07:06:06;4.60;;;2.97;;
24143;SDS011;12307;50.828;6.080;2023-10-09T07:08:48;3.85;;;3.17;;
24143;SDS011;12307;50.828;6.080;2023-10-09T07:11:34;5.05;;;3.30;;
24143;SDS011;12307;50.828;6.080;2023-10-09T07:14:06;5.30;;;3.30;;
24143;SDS011;12307;50.828;6.080;2023-10-09T07:16:34;4.40;;;3.22;;
24143;SDS011;12307;50.828;6.080;2023-10-09T07:19:22;5.07;;;3.50;;
24143;SDS011;12307;50.828;6.080;2023-10-09T07:22:09;3.67;;;2.90;;
24143;SDS011;12307;50.828;6.080;2023-10-09T07:24:45;5.10;;;3.33;;
24143;SDS011;12307;50.828;6.080;2023-10-09T07:27:16;5.75;;;3.42;;
24143;SDS011;12307;50.828;6.080;2023-10-09T07:29:42;5.25;;;3.53;;
24143;SDS011;12307;50.828;6.080;2023-10-09T07:32:12;4.28;;;3.13;;
24143;SDS011;12307;50.828;6.080;2023-10-09T07:34:45;3.88;;;3.30;;
24143;SDS011;12307;50.828;6.080;2023-10-09T07:37:21;4.75;;;3.42;;
24143;SDS011;12307;50.828;6.080;2023-10-09T07:39:48;4.47;;;3.30;;
24143;SDS011;12307;50.828;6.080;2023-10-09T07:42:22;4.68;;;3.40;;
24143;SDS011;12307;50.828;6.080;2023-10-09T07:45:06;4.50;;;3.30;;
24143;SDS011;12307;50.828;6.080;2023-10-09T07:47:45;4.45;;;3.53;;
24143;SDS011;12307;50.828;6.080;2023-10-09T07:50:26;3.60;;;2.95;;
24143;SDS011;12307;50.828;6.080;2023-10-09T07:53:04;5.10;;;3.60;;
24143;SDS011;12307;50.828;6.080;2023-10-09T07:55:49;4.15;;;3.13;;
24143;SDS011;12307;50.828;6.080;2023-10-09T07:58:20;5.15;;;3.50;;
24143;SDS011;12307;50.828;6.080;2023-10-09T08:00:50;4.22;;;3.33;;
24143;SDS011;12307;50.828;6.080;2023-10-09T08:03:35;4.47;;;3.50;;
24143;SDS011;12307;50.828;6.080;2023-10-09T08:06:02;4.53;;;3.28;;
24143;SDS011;12307;50.828;6.080;2023-10-09T08:08:47;4.80;;;3.60;;
24143;SDS011;12307;50.828;6.080;2023-10-09T08:11:33;5.13;;;3.72;;
24143;SDS011;12307;50.828;6.080;2023-10-09T08:14:04;4.65;;;3.20;;
24143;SDS011;12307;50.828;6.080;2023-10-09T08:16:45;3.97;;;3.08;;
24143;SDS011;12307;50.828;6.080;2023-10-09T08:19:11;5.00;;;3.72;;
24143;SDS011;12307;50.828;6.080;2023-10-09T08:21:56;4.43;;;3.25;;
24143;SDS011;12307;50.828;6.080;2023-10-09T08:24:43;4.30;;;3.30;;
24143;SDS011;12307;50.828;6.080;2023-10-09T08:27:17;4.95;;;3.28;;
24143;SDS011;12307;50.828;6.080;2023-10-09T08:29:55;4.30;;;3.20;;
24143;SDS011;12307;50.828;6.080;2023-10-09T08:32:39;4.38;;;3.38;;
24143;SDS011;12307;50.828;6.080;2023-10-09T08:35:07;4.20;;;3.38;;
24143;SDS011;12307;50.828;6.080;2023-10-09T08:37:56;4.55;;;3.40;;
24143;SDS011;12307;50.828;6.080;2023-10-09T08:40:34;5.03;;;3.45;;
24143;SDS011;12307;50.828;6.080;2023-10-09T08:43:08;4.63;;;3.35;;
24143;SDS011;12307;50.828;6.080;2023-10-09T08:45:35;4.78;;;3.60;;
24143;SDS011;12307;50.828;6.080;2023-10-09T08:48:04;4.80;;;3.60;;
24143;SDS011;12307;50.828;6.080;2023-10-09T08:50:31;4.90;;;3.03;;
24143;SDS011;12307;50.828;6.080;2023-10-09T08:52:57;4.68;;;3.50;;
24143;SDS011;12307;50.828;6.080;2023-10-09T08:55:23;4.88;;;3.33;;
24143;SDS011;12307;50.828;6.080;2023-10-09T08:57:50;4.13;;;3.10;;
24143;SDS011;12307;50.828;6.080;2023-10-09T09:00:17;4.05;;;3.05;;
24143;SDS011;12307;50.828;6.080;2023-10-09T09:02:49;4.40;;;2.95;;
24143;SDS011;12307;50.828;6.080;2023-10-09T09:05:18;3.80;;;3.00;;
24143;SDS011;12307;50.828;6.080;2023-10-09T09:07:49;4.60;;;2.92;;
24143;SDS011;12307;50.828;6.080;2023-10-09T09:10:22;3.55;;;3.00;;
24143;SDS011;12307;50.828;6.080;2023-10-09T09:13:01;3.90;;;2.88;;
24143;SDS011;12307;50.828;6.080;2023-10-09T09:15:28;3.45;;;2.58;;
24143;SDS011;12307;50.828;6.080;2023-10-09T09:18:02;4.15;;;2.80;;
24143;SDS011;12307;50.828;6.080;2023-10-09T09:20:31;4.03;;;2.70;;
24143;SDS011;12307;50.828;6.080;2023-10-09T09:23:01;3.75;;;2.72;;
24143;SDS011;12307;50.828;6.080;2023-10-09T09:25:39;3.20;;;2.60;;
24143;SDS011;12307;50.828;6.080;2023-10-09T09:28:26;3.50;;;2.88;;
24143;SDS011;12307;50.828;6.080;2023-10-09T09:31:00;4.00;;;2.83;;
24143;SDS011;12307;50.828;6.080;2023-10-09T09:33:38;3.80;;;2.63;;
24143;SDS011;12307;50.828;6.080;2023-10-09T09:36:10;4.53;;;2.90;;
24143;SDS011;12307;50.828;6.080;2023-10-09T09:38:38;3.30;;;2.70;;
24143;SDS011;12307;50.828;6.080;2023-10-09T09:41:07;3.42;;;2.65;;
24143;SDS011;12307;50.828;6.080;2023-10-09T09:43:35;3.00;;;2.42;;
24143;SDS011;12307;50.828;6.080;2023-10-09T09:46:05;2.83;;;2.40;;
24143;SDS011;12307;50.828;6.080;2023-10-09T09:48:33;3.60;;;2.33;;
24143;SDS011;12307;50.828;6.080;2023-10-09T09:51:04;3.25;;;2.38;;
24143;SDS011;12307;50.828;6.080;2023-10-09T09:53:33;2.72;;;2.25;;
24143;SDS011;12307;50.828;6.080;2023-10-09T09:56:00;3.00;;;2.30;;
24143;SDS011;12307;50.828;6.080;2023-10-09T09:58:27;2.67;;;2.20;;
24143;SDS011;12307;50.828;6.080;2023-10-09T10:01:03;2.83;;;2.20;;
24143;SDS011;12307;50.828;6.080;2023-10-09T10:03:40;3.08;;;2.47;;
24143;SDS011;12307;50.828;6.080;2023-10-09T10:06:12;2.47;;;2.28;;
24143;SDS011;12307;50.828;6.080;2023-10-09T10:08:40;2.50;;;2.30;;
24143;SDS011;12307;50.828;6.080;2023-10-09T10:11:07;2.78;;;2.28;;
24143;SDS011;12307;50.828;6.080;2023-10-09T10:13:55;3.40;;;2.40;;
24143;SDS011;12307;50.828;6.080;2023-10-09T10:16:26;3.63;;;2.40;;
24143;SDS011;12307;50.828;6.080;2023-10-09T10:18:59;3.25;;;2.40;;
24143;SDS011;12307;50.828;6.080;2023-10-09T10:21:34;3.08;;;2.22;;
24143;SDS011;12307;50.828;6.080;2023-10-09T10:24:05;3.53;;;2.65;;
24143;SDS011;12307;50.828;6.080;2023-10-09T10:27:19;3.85;;;2.70;;
24143;SDS011;12307;50.828;6.080;2023-10-09T10:32:55;3.85;;;2.80;;
24143;SDS011;12307;50.828;6.080;2023-10-09T10:35:34;3.38;;;2.60;;
24143;SDS011;12307;50.828;6.080;2023-10-09T10:38:21;3.40;;;2.90;;
24143;SDS011;12307;50.828;6.080;2023-10-09T10:41:07;3.80;;;2.55;;
24143;SDS011;12307;50.828;6.080;2023-10-09T10:43:36;3.42;;;2.58;;
24143;SDS011;12307;50.828;6.080;2023-10-09T10:46:17;3.67;;;2.78;;
24143;SDS011;12307;50.828;6.080;2023-10-09T10:49:00;3.15;;;2.70;;
24143;SDS011;12307;50.828;6.080;2023-10-09T10:51:39;2.75;;;2.20;;
24143;SDS011;12307;50.828;6.080;2023-10-09T10:54:06;3.13;;;2.50;;
24143;SDS011;12307;50.828;6.080;2023-10-09T10:56:51;3.15;;;2.70;;
24143;SDS011;12307;50.828;6.080;2023-10-09T10:59:17;3.05;;;2.63;;
24143;SDS011;12307;50.828;6.080;2023-10-09T11:01:50;3.65;;;2.70;;
24143;SDS011;12307;50.828;6.080;2023-10-09T11:04:46;3.63;;;2.50;;
24143;SDS011;12307;50.828;6.080;2023-10-09T11:07:32;3.30;;;2.50;;
24143;SDS011;12307;50.828;6.080;2023-10-09T11:09:58;3.42;;;2.53;;
24143;SDS011;12307;50.828;6.080;2023-10-09T11:12:29;3.53;;;2.50;;
24143;SDS011;12307;50.828;6.080;2023-10-09T11:15:08;3.33;;;2.50;;
24143;SDS011;12307;50.828;6.080;2023-10-09T11:17:58;3.05;;;2.50;;
24143;SDS011;12307;50.828;6.080;2023-10-09T11:20:26;3.50;;;2.70;;
24143;SDS011;12307;50.828;6.080;2023-10-09T11:22:57;4.25;;;2.75;;
24143;SDS011;12307;50.828;6.080;2023-10-09T11:25:35;3.63;;;3.03;;
24143;SDS011;12307;50.828;6.080;2023-10-09T11:28:03;3.20;;;2.67;;
24143;SDS011;12307;50.828;6.080;2023-10-09T11:30:53;3.60;;;2.95;;
24143;SDS011;12307;50.828;6.080;2023-10-09T11:33:20;2.75;;;2.20;;
24143;SDS011;12307;50.828;6.080;2023-10-09T11:35:55;4.10;;;3.10;;
24143;SDS011;12307;50.828;6.080;2023-10-09T11:38:24;4.13;;;2.67;;
24143;SDS011;12307;50.828;6.080;2023-10-09T11:40:51;3.30;;;2.65;;
24143;SDS011;12307;50.828;6.080;2023-10-09T11:43:17;4.07;;;2.60;;
24143;SDS011;12307;50.828;6.080;2023-10-09T11:45:42;3.10;;;2.60;;
24143;SDS011;12307;50.828;6.080;2023-10-09T11:48:20;3.67;;;2.97;;
24143;SDS011;12307;50.828;6.080;2023-10-09T11:51:13;4.35;;;2.70;;
24143;SDS011;12307;50.828;6.080;2023-10-09T11:53:44;3.55;;;2.70;;
24143;SDS011;12307;50.828;6.080;2023-10-09T11:56:21;4.32;;;3.00;;
24143;SDS011;12307;50.828;6.080;2023-10-09T11:58:47;3.40;;;2.63;;
24143;SDS011;12307;50.828;6.080;2023-10-09T12:01:15;3.90;;;2.78;;
24143;SDS011;12307;50.828;6.080;2023-10-09T12:03:42;3.95;;;2.88;;
24143;SDS011;12307;50.828;6.080;2023-10-09T12:06:16;3.58;;;2.78;;
24143;SDS011;12307;50.828;6.080;2023-10-09T12:08:44;3.72;;;2.80;;
24143;SDS011;12307;50.828;6.080;2023-10-09T12:11:13;3.28;;;2.55;;
24143;SDS011;12307;50.828;6.080;2023-10-09T12:13:47;3.42;;;2.65;;
24143;SDS011;12307;50.828;6.080;2023-10-09T12:16:13;3.30;;;2.42;;
24143;SDS011;12307;50.828;6.080;2023-10-09T12:18:40;2.95;;;2.50;;
24143;SDS011;12307;50.828;6.080;2023-10-09T12:21:06;4.68;;;2.53;;
24143;SDS011;12307;50.828;6.080;2023-10-09T12:23:33;3.28;;;2.70;;
24143;SDS011;12307;50.828;6.080;2023-10-09T12:26:02;3.85;;;2.85;;
24143;SDS011;12307;50.828;6.080;2023-10-09T12:28:28;3.85;;;2.75;;
24143;SDS011;12307;50.828;6.080;2023-10-09T12:30:54;3.80;;;2.72;;
24143;SDS011;12307;50.828;6.080;2023-10-09T12:33:26;3.67;;;2.70;;
24143;SDS011;12307;50.828;6.080;2023-10-09T12:35:53;3.65;;;2.78;;
24143;SDS011;12307;50.828;6.080;2023-10-09T12:38:26;5.35;;;2.90;;
24143;SDS011;12307;50.828;6.080;2023-10-09T12:41:03;3.85;;;2.80;;
24143;SDS011;12307;50.828;6.080;2023-10-09T12:43:43;4.03;;;2.80;;
24143;SDS011;12307;50.828;6.080;2023-10-09T12:46:09;4.13;;;2.65;;
24143;SDS011;12307;50.828;6.080;2023-10-09T12:48:34;3.35;;;2.50;;
24143;SDS011;12307;50.828;6.080;2023-10-09T12:51:03;3.65;;;2.58;;
24143;SDS011;12307;50.828;6.080;2023-10-09T12:53:31;3.78;;;2.75;;
24143;SDS011;12307;50.828;6.080;2023-10-09T12:55:58;4.47;;;2.78;;
24143;SDS011;12307;50.828;6.080;2023-10-09T12:58:25;3.53;;;2.65;;
24143;SDS011;12307;50.828;6.080;2023-10-09T13:00:52;3.80;;;2.88;;
24143;SDS011;12307;50.828;6.080;2023-10-09T13:03:18;4.72;;;2.55;;
24143;SDS011;12307;50.828;6.080;2023-10-09T13:05:45;3.90;;;2.80;;
24143;SDS011;12307;50.828;6.080;2023-10-09T13:08:17;3.55;;;2.75;;
24143;SDS011;12307;50.828;6.080;2023-10-09T13:10:46;4.97;;;2.90;;
24143;SDS011;12307;50.828;6.080;2023-10-09T13:13:12;4.25;;;3.05;;
24143;SDS011;12307;50.828;6.080;2023-10-09T13:15:39;3.20;;;2.58;;
24143;SDS011;12307;50.828;6.080;2023-10-09T13:18:07;3.95;;;2.70;;
24143;SDS011;12307;50.828;6.080;2023-10-09T13:20:33;3.60;;;2.88;;
24143;SDS011;12307;50.828;6.080;2023-10-09T13:23:01;4.32;;;2.63;;
24143;SDS011;12307;50.828;6.080;2023-10-09T13:25:27;4.60;;;2.80;;
24143;SDS011;12307;50.828;6.080;2023-10-09T13:28:04;3.95;;;2.42;;
24143;SDS011;12307;50.828;6.080;2023-10-09T13:30:30;4.28;;;3.00;;
24143;SDS011;12307;50.828;6.080;2023-10-09T13:33:05;4.50;;;3.00;;
24143;SDS011;12307;50.828;6.080;2023-10-09T13:35:31;4.88;;;2.50;;
24143;SDS011;12307;50.828;6.080;2023-10-09T13:38:03;3.83;;;3.03;;
24143;SDS011;12307;50.828;6.080;2023-10-09T13:40:33;3.78;;;2.83;;
24143;SDS011;12307;50.828;6.080;2023-10-09T13:43:02;3.75;;;2.80;;
24143;SDS011;12307;50.828;6.080;2023-10-09T13:45:28;4.38;;;2.90;;
24143;SDS011;12307;50.828;6.080;2023-10-09T13:47:54;3.72;;;2.70;;
24143;SDS011;12307;50.828;6.080;2023-10-09T13:50:24;3.78;;;2.80;;
24143;SDS011;12307;50.828;6.080;2023-10-09T13:52:57;3.78;;;2.75;;
24143;SDS011;12307;50.828;6.080;2023-10-09T13:55:23;5.47;;;3.05;;
24143;SDS011;12307;50.828;6.080;2023-10-09T13:57:56;3.85;;;2.95;;
24143;SDS011;12307;50.828;6.080;2023-10-09T14:00:22;4.22;;;2.47;;
24143;SDS011;12307;50.828;6.080;2023-10-09T14:02:58;3.85;;;2.95;;
24143;SDS011;12307;50.828;6.080;2023-10-09T14:05:27;3.20;;;2.58;;
24143;SDS011;12307;50.828;6.080;2023-10-09T14:07:53;3.95;;;2.85;;
24143;SDS011;12307;50.828;6.080;2023-10-09T14:10:21;4.63;;;3.08;;
24143;SDS011;12307;50.828;6.080;2023-10-09T14:12:51;4.13;;;2.83;;
24143;SDS011;12307;50.828;6.080;2023-10-09T14:15:19;4.05;;;2.92;;
24143;SDS011;12307;50.828;6.080;2023-10-09T14:17:44;4.32;;;3.00;;
24143;SDS011;12307;50.828;6.080;2023-10-09T14:20:12;4.03;;;3.00;;
24143;SDS011;12307;50.828;6.080;2023-10-09T14:22:57;3.97;;;2.78;;
24143;SDS011;12307;50.828;6.080;2023-10-09T14:25:31;3.40;;;2.78;;
24143;SDS011;12307;50.828;6.080;2023-10-09T14:27:57;3.70;;;2.80;;
24143;SDS011;12307;50.828;6.080;2023-10-09T14:30:23;4.75;;;3.10;;
24143;SDS011;12307;50.828;6.080;2023-10-09T14:32:55;3.90;;;3.00;;
24143;SDS011;12307;50.828;6.080;2023-10-09T14:35:21;3.75;;;2.95;;
24143;SDS011;12307;50.828;6.080;2023-10-09T14:37:55;4.80;;;3.13;;
24143;SDS011;12307;50.828;6.080;2023-10-09T14:40:22;3.72;;;3.00;;
24143;SDS011;12307;50.828;6.080;2023-10-09T14:42:57;5.10;;;3.45;;
24143;SDS011;12307;50.828;6.080;2023-10-09T14:45:23;4.07;;;2.80;;
24143;SDS011;12307;50.828;6.080;2023-10-09T14:47:50;4.25;;;3.30;;
24143;SDS011;12307;50.828;6.080;2023-10-09T14:50:18;4.70;;;2.92;;
24143;SDS011;12307;50.828;6.080;2023-10-09T14:52:47;4.85;;;3.17;;
24143;SDS011;12307;50.828;6.080;2023-10-09T14:55:13;4.05;;;2.95;;
24143;SDS011;12307;50.828;6.080;2023-10-09T14:57:40;4.28;;;3.13;;
24143;SDS011;12307;50.828;6.080;2023-10-09T15:00:07;4.72;;;3.10;;
24143;SDS011;12307;50.828;6.080;2023-10-09T15:02:38;4.35;;;2.97;;
24143;SDS011;12307;50.828;6.080;2023-10-09T15:05:04;4.65;;;3.20;;
24143;SDS011;12307;50.828;6.080;2023-10-09T15:07:35;4.60;;;3.38;;
24143;SDS011;12307;50.828;6.080;2023-10-09T15:10:04;5.00;;;3.10;;
24143;SDS011;12307;50.828;6.080;2023-10-09T15:12:30;3.78;;;2.92;;
24143;SDS011;12307;50.828;6.080;2023-10-09T15:14:57;4.07;;;2.92;;
24143;SDS011;12307;50.828;6.080;2023-10-09T15:17:23;3.92;;;2.95;;
24143;SDS011;12307;50.828;6.080;2023-10-09T15:19:49;5.78;;;3.10;;
24143;SDS011;12307;50.828;6.080;2023-10-09T15:22:21;4.00;;;3.10;;